AIRTAXI Virtual Airline

 METAR AND TAF INFORMATION
METAR FOR EGLC
ADDS - METARS form results

(0716 UTC 23 September 2019)
Data provider http://aviationweather.gov/metar/data/
 
METAR text: EGLC 230650Z AUTO 23009KT 9999 BKN015 OVC049 15/12 Q1011
Conditions at: EGLC (LONDON CITY AIRP, GB) observed 0650 UTC 23 September 2019
Temperature: 15.0°C (59°F)
Dewpoint: 12.0°C (54°F) [RH = 82%]
Pressure (altimeter): 29.85 inches Hg (1011.0 mb)
Winds: from the SW (230 degrees) at 10 MPH (9 knots; 4.6 m/s)
Visibility: 6 or more miles (10+ km)
Ceiling: 1500 feet AGL
Clouds: broken clouds at 1500 feet AGL
overcast cloud deck at 4900 feet AGL
Weather: no significant weather observed at this time

METAR text: EGLC 230620Z AUTO 23009KT 210V300 9999 BKN014 15/12 Q1010
Conditions at: EGLC (LONDON CITY AIRP, GB) observed 0620 UTC 23 September 2019
Temperature: 15.0°C (59°F)
Dewpoint: 12.0°C (54°F) [RH = 82%]
Pressure (altimeter): 29.82 inches Hg (1010.0 mb)
Winds: from the SW (230 degrees) at 10 MPH (9 knots; 4.6 m/s)
Visibility: 6 or more miles (10+ km)
Ceiling: 1400 feet AGL
Clouds: broken clouds at 1400 feet AGL
Weather: no significant weather observed at this time

Forecast for: EGLC (LONDON CITY AIRP, GB)
Text: TAF EGLC 230503Z 2306/2315 24010KT 9999 SCT030
Forecast period: 0600 to 1500 UTC 23 September 2019
Forecast type: FROM: standard forecast or significant change
Winds: from the WSW (240 degrees) at 12 MPH (10 knots; 5.1 m/s)
Visibility: 6 or more miles 10+ km)
Ceiling: at least 12,000 feet AGL
Clouds: scattered clouds at 3000 feet AGL
Weather: no significant weather forecast for this period
Text: TEMPO 2306/2308 BKN008
Forecast period: 0600 to 0800 UTC 23 September 2019
Forecast type: TEMPORARY: The following changes expected for less than half the time period
Visibility: missing
Ceiling: 800 feet AGL
Clouds: broken clouds at 800 feet AGL
Weather: no significant weather forecast for this period
Text: PROB30
Forecast period: 1200 to 1500 UTC 23 September 2019
Forecast type: TEMPORARY: The following changes expected for less than half the time period
Visibility: 4 miles (7 km)
Ceiling: unknown
Clouds: missing
Weather: SHRA  (rain showers)

 AIRPORT MAP

 RUNWAY INFORMATION
Runway 10 Runway length 4948 ft Runway width 98 ft
Runway elevation 16 ft Runway displaced threshold 358 ft Runway heading 93
Runway 28 Runway length 4948 ft Runway width 98 ft
Runway elevation 19 ft Runway displaced threshold 211 ft Runway heading 273

 AIRPORT FREQUENCIES
Type APP Name APP Frequency 132.7 MHZ
Type ATIS Name ATIS Frequency 136.35 MHZ
Type GND Name GND Frequency 121.825 MHZ
Type TWR Name TWR Frequency 118.075 MHZ

 AIRPORT NEAR NAVIGATION AIDS
Type NDB Name City Frequency 322 KHZ